Time;durP1;ratioP1;P1;durP2;ratioP2;P2;SDS_P1;SDS_P2;PMS_P1;PMS_P2;Temp;Humidity;BMP_temperature;BMP_pressure;BME280_temperature;BME280_humidity;BME280_pressure;Samples;Min_cycle;Max_cycle;Signal;HPM_P1;HPM_P2
2021/06/05 00:01:37;;;;;;;3.33;1.75;;;;;;;;;;3586555;40;20143;-63
2021/06/05 00:04:04;;;;;;;7.40;2.00;;;;;;;;;;3587141;40;20055;-63
2021/06/05 00:06:30;;;;;;;4.05;2.10;;;;;;;;;;3586619;40;20048;-62
2021/06/05 00:08:56;;;;;;;8.07;2.53;;;;;;;;;;3584641;40;20045;-63
2021/06/05 00:11:24;;;;;;;4.10;2.60;;;;;;;;;;3586031;40;20333;-66
2021/06/05 00:13:56;;;;;;;3.88;2.33;;;;;;;;;;3579325;40;20360;-64
2021/06/05 00:16:25;;;;;;;8.25;2.45;;;;;;;;;;3585049;40;20046;-64
2021/06/05 00:18:50;;;;;;;5.22;2.95;;;;;;;;;;3583949;40;20433;-64
2021/06/05 00:21:18;;;;;;;3.92;2.20;;;;;;;;;;3586733;40;20037;-61
2021/06/05 00:23:44;;;;;;;3.58;2.05;;;;;;;;;;3585239;40;20245;-64
2021/06/05 00:26:10;;;;;;;17.30;4.05;;;;;;;;;;3583693;40;20040;-64
2021/06/05 00:28:36;;;;;;;4.82;3.42;;;;;;;;;;3576824;40;20037;-63
2021/06/05 00:31:02;;;;;;;6.38;3.30;;;;;;;;;;3587019;40;20040;-64
2021/06/05 00:33:29;;;;;;;5.95;2.60;;;;;;;;;;3585024;40;20029;-63
2021/06/05 00:35:55;;;;;;;5.15;2.10;;;;;;;;;;3582701;40;20059;-63
2021/06/05 00:38:21;;;;;;;3.67;1.95;;;;;;;;;;3585311;40;20025;-63
2021/06/05 00:40:49;;;;;;;4.13;2.90;;;;;;;;;;3577671;40;20094;-64
2021/06/05 00:43:18;;;;;;;4.07;2.22;;;;;;;;;;3585285;40;20044;-63
2021/06/05 00:45:45;;;;;;;5.68;2.60;;;;;;;;;;3584081;40;20070;-61
2021/06/05 00:48:12;;;;;;;4.68;2.72;;;;;;;;;;3586344;40;20081;-61
2021/06/05 00:50:39;;;;;;;5.45;2.33;;;;;;;;;;3585430;40;20037;-61
2021/06/05 00:53:06;;;;;;;5.28;1.92;;;;;;;;;;3583671;40;20056;-61
2021/06/05 00:55:34;;;;;;;4.97;2.40;;;;;;;;;;3583738;40;20044;-61
2021/06/05 00:57:59;;;;;;;3.85;2.30;;;;;;;;;;3586479;40;20434;-62
2021/06/05 01:00:38;;;;;;;3.60;2.47;;;;;;;;;;3586332;40;20063;-61
2021/06/05 01:03:06;;;;;;;3.92;2.58;;;;;;;;;;3586893;40;20036;-61
2021/06/05 01:05:33;;;;;;;4.65;2.55;;;;;;;;;;3586113;40;20036;-61
2021/06/05 01:08:24;;;;;;;5.30;2.38;;;;;;;;;;3587040;40;20063;-61
2021/06/05 01:10:54;;;;;;;4.07;2.35;;;;;;;;;;3584557;40;20432;-61
2021/06/05 01:13:31;;;;;;;4.40;2.50;;;;;;;;;;3586646;40;20036;-61
2021/06/05 01:15:59;;;;;;;4.53;2.47;;;;;;;;;;3584895;40;20423;-61
2021/06/05 01:18:41;;;;;;;4.95;2.50;;;;;;;;;;3586881;40;20297;-62
2021/06/05 01:21:33;;;;;;;3.20;2.00;;;;;;;;;;3586570;40;20063;-62
2021/06/05 01:24:01;;;;;;;8.45;2.17;;;;;;;;;;3585606;40;20638;-62
2021/06/05 01:26:36;;;;;;;5.85;2.65;;;;;;;;;;3586030;40;20040;-62
2021/06/05 01:29:16;;;;;;;4.68;2.70;;;;;;;;;;3585148;40;20045;-62
2021/06/05 01:31:46;;;;;;;4.55;2.33;;;;;;;;;;3585289;40;20063;-62
2021/06/05 01:34:13;;;;;;;3.53;2.03;;;;;;;;;;3585999;40;20392;-62
2021/06/05 01:36:43;;;;;;;5.18;2.40;;;;;;;;;;3584923;40;20137;-62
2021/06/05 01:39:11;;;;;;;;;;;;;;;;;;3585174;40;20064;-62
2021/06/05 01:41:38;;;;;;;9.50;2.65;;;;;;;;;;3586656;39;19943;-62
2021/06/05 01:44:07;;;;;;;4.78;2.65;;;;;;;;;;3586945;40;20033;-62
2021/06/05 01:46:37;;;;;;;4.10;2.50;;;;;;;;;;3585909;40;20261;-62
2021/06/05 01:49:04;;;;;;;3.77;2.47;;;;;;;;;;3585273;40;20364;-62
2021/06/05 01:51:30;;;;;;;4.25;2.95;;;;;;;;;;3587691;40;20039;-62
2021/06/05 01:53:58;;;;;;;3.85;2.70;;;;;;;;;;3586199;40;20415;-62
2021/06/05 01:56:32;;;;;;;4.15;2.67;;;;;;;;;;3584797;40;20037;-62
2021/06/05 01:58:58;;;;;;;8.50;3.30;;;;;;;;;;3586208;40;20052;-62
2021/06/05 02:01:24;;;;;;;5.00;3.15;;;;;;;;;;3587595;40;20442;-62
2021/06/05 02:03:50;;;;;;;6.82;4.50;;;;;;;;;;3585000;40;20084;-61
2021/06/05 02:06:18;;;;;;;7.32;4.30;;;;;;;;;;3583678;40;20441;-62
2021/06/05 02:08:44;;;;;;;8.80;4.50;;;;;;;;;;3586528;40;20051;-62
2021/06/05 02:11:12;;;;;;;9.40;5.15;;;;;;;;;;3584591;40;20037;-62
2021/06/05 02:13:46;;;;;;;10.20;5.55;;;;;;;;;;3583723;40;20250;-61
2021/06/05 02:16:16;;;;;;;7.10;5.13;;;;;;;;;;3584690;40;20814;-61
2021/06/05 02:18:47;;;;;;;10.00;5.25;;;;;;;;;;3587433;40;20121;-62
2021/06/05 02:21:19;;;;;;;6.25;4.55;;;;;;;;;;3585185;40;20053;-62
2021/06/05 02:23:54;;;;;;;10.05;4.47;;;;;;;;;;3584400;40;20323;-61
2021/06/05 02:26:22;;;;;;;7.18;4.90;;;;;;;;;;3585979;40;20087;-62
2021/06/05 02:28:51;;;;;;;9.57;5.28;;;;;;;;;;3585391;40;20032;-61
2021/06/05 02:31:18;;;;;;;6.22;4.35;;;;;;;;;;3585963;40;20044;-62
2021/06/05 02:33:44;;;;;;;6.80;4.38;;;;;;;;;;3586743;40;20052;-62
2021/06/05 02:36:12;;;;;;;9.02;4.22;;;;;;;;;;3586910;40;20469;-62
2021/06/05 02:38:39;;;;;;;7.63;4.03;;;;;;;;;;3586823;40;20036;-62
2021/06/05 02:41:07;;;;;;;5.07;3.92;;;;;;;;;;3587429;40;20614;-61
2021/06/05 02:43:34;;;;;;;4.72;4.15;;;;;;;;;;3585400;40;20376;-62
2021/06/05 02:46:07;;;;;;;5.40;3.72;;;;;;;;;;3586951;40;20350;-62
2021/06/05 02:48:44;;;;;;;5.53;4.40;;;;;;;;;;3587499;40;20041;-62
2021/06/05 02:51:10;;;;;;;5.45;4.22;;;;;;;;;;3587441;40;20614;-62
2021/06/05 02:53:36;;;;;;;7.80;4.22;;;;;;;;;;3586382;40;20467;-62
2021/06/05 02:56:01;;;;;;;4.45;3.80;;;;;;;;;;3586904;40;20063;-62
2021/06/05 02:58:27;;;;;;;6.38;4.22;;;;;;;;;;3586607;40;20041;-62
2021/06/05 03:00:52;;;;;;;6.55;4.10;;;;;;;;;;3586738;40;20039;-62
2021/06/05 03:03:20;;;;;;;6.95;4.05;;;;;;;;;;3586591;40;20039;-62
2021/06/05 03:05:46;;;;;;;5.57;4.30;;;;;;;;;;3586135;40;20429;-62
2021/06/05 03:08:19;;;;;;;7.10;4.03;;;;;;;;;;3585253;40;20509;-62
2021/06/05 03:10:44;;;;;;;6.55;3.83;;;;;;;;;;3586069;40;20036;-62
2021/06/05 03:13:11;;;;;;;5.43;4.40;;;;;;;;;;3586773;40;20029;-62
2021/06/05 03:15:37;;;;;;;5.10;4.60;;;;;;;;;;3585120;40;20376;-62
2021/06/05 03:18:03;;;;;;;6.72;5.78;;;;;;;;;;3576046;40;20300;-62
2021/06/05 03:20:33;;;;;;;7.15;5.85;;;;;;;;;;3587031;40;20040;-62
2021/06/05 03:22:59;;;;;;;10.35;5.68;;;;;;;;;;3586265;40;20076;-62
2021/06/05 03:25:25;;;;;;;7.03;5.72;;;;;;;;;;3584563;40;20360;-62
2021/06/05 03:27:51;;;;;;;7.97;5.60;;;;;;;;;;3583882;40;20028;-62
2021/06/05 03:30:17;;;;;;;11.00;6.47;;;;;;;;;;3587110;40;20056;-62
2021/06/05 03:32:43;;;;;;;7.25;6.55;;;;;;;;;;3584993;40;20051;-62
2021/06/05 03:35:11;;;;;;;10.68;5.80;;;;;;;;;;3583271;40;20076;-62
2021/06/05 03:37:38;;;;;;;8.52;6.57;;;;;;;;;;3585326;40;20084;-62
2021/06/05 03:40:05;;;;;;;7.93;6.32;;;;;;;;;;3586878;40;20056;-62
2021/06/05 03:42:31;;;;;;;10.32;7.03;;;;;;;;;;3585879;40;20057;-62
2021/06/05 03:44:57;;;;;;;8.48;6.65;;;;;;;;;;3581826;40;20041;-62
2021/06/05 03:47:24;;;;;;;8.90;6.18;;;;;;;;;;3586177;40;20049;-62
2021/06/05 03:49:52;;;;;;;12.13;7.60;;;;;;;;;;3585726;40;20154;-62
2021/06/05 03:52:22;;;;;;;11.48;6.88;;;;;;;;;;3585229;40;20037;-62
2021/06/05 03:54:52;;;;;;;10.18;7.88;;;;;;;;;;3583729;40;20071;-62
2021/06/05 03:57:20;;;;;;;6.70;6.00;;;;;;;;;;3587138;40;20024;-62
2021/06/05 03:59:45;;;;;;;7.70;7.00;;;;;;;;;;3585182;40;20035;-62
2021/06/05 04:02:10;;;;;;;13.43;7.75;;;;;;;;;;3584535;40;20482;-61
2021/06/05 04:04:36;;;;;;;9.77;7.43;;;;;;;;;;3583432;40;20182;-62
2021/06/05 04:07:03;;;;;;;10.50;8.35;;;;;;;;;;3586851;40;20036;-62
2021/06/05 04:09:28;;;;;;;8.98;7.72;;;;;;;;;;3586681;40;20129;-61
2021/06/05 04:11:54;;;;;;;8.75;7.20;;;;;;;;;;3586297;40;20047;-62
2021/06/05 04:14:19;;;;;;;7.90;6.97;;;;;;;;;;3586326;40;20036;-62
2021/06/05 04:16:44;;;;;;;12.30;7.18;;;;;;;;;;3586656;40;20044;-62
2021/06/05 04:19:11;;;;;;;7.60;6.80;;;;;;;;;;3587259;40;20064;-61
2021/06/05 04:21:36;;;;;;;8.52;7.72;;;;;;;;;;3586191;40;20125;-62
2021/06/05 04:24:02;;;;;;;8.75;7.85;;;;;;;;;;3588181;40;20044;-62
2021/06/05 04:26:27;;;;;;;10.82;8.30;;;;;;;;;;3586453;40;20100;-62
2021/06/05 04:28:53;;;;;;;8.65;7.47;;;;;;;;;;3585408;40;20525;-62
2021/06/05 04:31:18;;;;;;;9.65;8.45;;;;;;;;;;3587038;40;20110;-62
2021/06/05 04:33:44;;;;;;;8.65;7.78;;;;;;;;;;3586525;40;20028;-62
2021/06/05 04:36:14;;;;;;;11.23;8.05;;;;;;;;;;3586477;40;20515;-61
2021/06/05 04:38:41;;;;;;;9.05;7.70;;;;;;;;;;3580584;40;20040;-62
2021/06/05 04:41:08;;;;;;;13.20;8.35;;;;;;;;;;3585414;40;20032;-62
2021/06/05 04:43:34;;;;;;;10.68;8.95;;;;;;;;;;3586322;40;20669;-61
2021/06/05 04:46:00;;;;;;;10.77;8.50;;;;;;;;;;3584214;40;20056;-62
2021/06/05 04:48:25;;;;;;;9.48;8.57;;;;;;;;;;3584800;40;20036;-62
2021/06/05 04:50:52;;;;;;;9.63;8.60;;;;;;;;;;3578456;40;20063;-61
2021/06/05 04:53:18;;;;;;;13.00;8.60;;;;;;;;;;3586111;40;20098;-62
2021/06/05 04:55:43;;;;;;;9.45;8.43;;;;;;;;;;3583603;40;20064;-61
2021/06/05 04:58:09;;;;;;;8.73;7.75;;;;;;;;;;3584553;40;20053;-61
2021/06/05 05:00:41;;;;;;;9.07;7.50;;;;;;;;;;3585940;40;20056;-61
2021/06/05 05:03:10;;;;;;;11.07;8.13;;;;;;;;;;3583362;40;20041;-61
2021/06/05 05:05:36;;;;;;;8.50;7.53;;;;;;;;;;3582699;40;20055;-62
2021/06/05 05:08:01;;;;;;;9.55;8.55;;;;;;;;;;3585477;40;20050;-61
2021/06/05 05:10:34;;;;;;;7.85;6.85;;;;;;;;;;3567316;40;20280;-61
2021/06/05 05:13:01;;;;;;;8.05;7.25;;;;;;;;;;3584678;40;20044;-62
2021/06/05 05:15:27;;;;;;;10.85;6.35;;;;;;;;;;3585068;40;20036;-62
2021/06/05 05:17:53;;;;;;;9.25;6.32;;;;;;;;;;3586471;40;20033;-62
2021/06/05 05:20:24;;;;;;;8.35;6.50;;;;;;;;;;3585351;40;20028;-62
2021/06/05 05:22:49;;;;;;;5.88;5.28;;;;;;;;;;3584846;40;20060;-62
2021/06/05 05:25:15;;;;;;;7.53;5.75;;;;;;;;;;3585612;40;20033;-62
2021/06/05 05:27:41;;;;;;;7.82;6.65;;;;;;;;;;3588239;40;20071;-62
2021/06/05 05:30:10;;;;;;;8.80;6.60;;;;;;;;;;3586448;40;20444;-62
2021/06/05 05:32:35;;;;;;;10.38;7.22;;;;;;;;;;3577771;40;20036;-62
2021/06/05 05:35:01;;;;;;;17.80;7.80;;;;;;;;;;3585067;40;20041;-60
2021/06/05 05:37:27;;;;;;;7.72;6.85;;;;;;;;;;3586368;40;20049;-61
2021/06/05 05:39:52;;;;;;;8.60;6.65;;;;;;;;;;3587392;40;20044;-61
2021/06/05 05:42:18;;;;;;;8.20;7.22;;;;;;;;;;3588860;40;20400;-61
2021/06/05 05:44:43;;;;;;;9.82;7.50;;;;;;;;;;3585816;40;20051;-61
2021/06/05 05:47:08;;;;;;;10.43;6.88;;;;;;;;;;3586361;40;20032;-61
2021/06/05 05:49:34;;;;;;;9.13;7.03;;;;;;;;;;3585961;40;20049;-61
2021/06/05 05:51:59;;;;;;;9.15;7.53;;;;;;;;;;3589775;39;20044;-61
2021/06/05 05:54:25;;;;;;;8.77;7.53;;;;;;;;;;3588239;40;20086;-61
2021/06/05 05:56:50;;;;;;;9.85;7.85;;;;;;;;;;3588387;40;20122;-62
2021/06/05 05:59:17;;;;;;;10.38;7.57;;;;;;;;;;3580533;40;20041;-62
2021/06/05 06:01:43;;;;;;;11.02;8.18;;;;;;;;;;3588216;40;20039;-62
2021/06/05 06:04:08;;;;;;;10.07;7.30;;;;;;;;;;3587808;40;20028;-62
2021/06/05 06:06:34;;;;;;;9.10;7.57;;;;;;;;;;3587179;40;20432;-62
2021/06/05 06:09:00;;;;;;;10.88;7.97;;;;;;;;;;3586852;40;20032;-62
2021/06/05 06:11:26;;;;;;;11.75;8.02;;;;;;;;;;3586833;40;20036;-62
2021/06/05 06:13:51;;;;;;;9.95;8.50;;;;;;;;;;3586348;40;20036;-62
2021/06/05 06:16:18;;;;;;;9.10;7.88;;;;;;;;;;3585697;40;20036;-63
2021/06/05 06:18:45;;;;;;;10.98;8.25;;;;;;;;;;3586105;40;20129;-62
2021/06/05 06:21:14;;;;;;;8.55;7.32;;;;;;;;;;3587070;40;20029;-62
2021/06/05 06:23:41;;;;;;;13.93;7.75;;;;;;;;;;3585904;40;20443;-63
2021/06/05 06:26:24;;;;;;;9.82;7.15;;;;;;;;;;3584627;40;20056;-63
2021/06/05 06:28:51;;;;;;;11.75;8.38;;;;;;;;;;3586225;40;20036;-62
2021/06/05 06:31:19;;;;;;;10.05;8.15;;;;;;;;;;3587206;40;20340;-62
2021/06/05 06:33:45;;;;;;;9.13;8.13;;;;;;;;;;3577297;40;20149;-62
2021/06/05 06:36:11;;;;;;;9.23;8.27;;;;;;;;;;3585120;40;20091;-62
2021/06/05 06:38:41;;;;;;;11.57;8.77;;;;;;;;;;3585990;40;20039;-62
2021/06/05 06:41:09;;;;;;;10.27;7.70;;;;;;;;;;3586724;40;20046;-63
2021/06/05 06:43:35;;;;;;;11.65;9.60;;;;;;;;;;3583727;40;20036;-62
2021/06/05 06:46:06;;;;;;;10.80;9.65;;;;;;;;;;3584497;40;20298;-62
2021/06/05 06:48:32;;;;;;;10.70;9.60;;;;;;;;;;3587853;40;20025;-62
2021/06/05 06:50:58;;;;;;;12.13;10.65;;;;;;;;;;3584944;40;20291;-62
2021/06/05 06:53:23;;;;;;;12.88;11.00;;;;;;;;;;3584589;40;20044;-62
2021/06/05 06:55:49;;;;;;;12.13;10.88;;;;;;;;;;3583961;40;20084;-61
2021/06/05 06:58:15;;;;;;;16.00;11.20;;;;;;;;;;3586624;40;20064;-62
2021/06/05 07:00:43;;;;;;;11.65;10.45;;;;;;;;;;3584201;40;20029;-62
2021/06/05 07:03:09;;;;;;;18.92;11.68;;;;;;;;;;3584739;40;20036;-62
2021/06/05 07:05:36;;;;;;;13.18;10.25;;;;;;;;;;3586114;40;20122;-62
2021/06/05 07:08:33;;;;;;;13.93;12.52;;;;;;;;;;3586098;40;20129;-62
2021/06/05 07:11:03;;;;;;;12.00;10.88;;;;;;;;;;3585231;40;20037;-62
2021/06/05 07:13:28;;;;;;;13.57;12.18;;;;;;;;;;3587153;40;20033;-62
2021/06/05 07:15:55;;;;;;;18.45;10.85;;;;;;;;;;3587067;40;20032;-62
2021/06/05 07:18:22;;;;;;;13.02;11.57;;;;;;;;;;3587172;40;20049;-62
2021/06/05 07:20:49;;;;;;;13.30;11.43;;;;;;;;;;3586767;40;20040;-62
2021/06/05 07:23:16;;;;;;;11.93;10.68;;;;;;;;;;3587612;40;20077;-62
2021/06/05 07:25:41;;;;;;;12.80;11.07;;;;;;;;;;3585835;40;20025;-62
2021/06/05 07:28:23;;;;;;;14.60;10.57;;;;;;;;;;3586739;40;20054;-62
2021/06/05 07:30:50;;;;;;;11.90;10.60;;;;;;;;;;3585920;40;20081;-62
2021/06/05 07:33:16;;;;;;;10.65;9.65;;;;;;;;;;3586436;40;20544;-61
2021/06/05 07:35:42;;;;;;;13.88;9.98;;;;;;;;;;3585280;40;20028;-62
2021/06/05 07:38:10;;;;;;;11.77;9.20;;;;;;;;;;3586028;40;20650;-62
2021/06/05 07:40:36;;;;;;;12.20;8.85;;;;;;;;;;3586649;40;20099;-61
2021/06/05 07:43:02;;;;;;;9.48;8.50;;;;;;;;;;3587204;40;20057;-62
2021/06/05 07:45:27;;;;;;;10.30;8.13;;;;;;;;;;3584751;40;20044;-60
2021/06/05 07:47:52;;;;;;;9.88;8.30;;;;;;;;;;3570302;40;20366;-60
2021/06/05 07:50:18;;;;;;;9.02;8.10;;;;;;;;;;3587266;40;20044;-61
2021/06/05 07:52:44;;;;;;;12.10;8.23;;;;;;;;;;3585461;40;20057;-61
2021/06/05 07:55:10;;;;;;;8.63;7.78;;;;;;;;;;3584918;40;20055;-62
2021/06/05 07:57:36;;;;;;;10.60;7.90;;;;;;;;;;3585755;40;20029;-62
2021/06/05 08:00:06;;;;;;;8.38;6.68;;;;;;;;;;3586096;40;20024;-61
2021/06/05 08:02:31;;;;;;;7.37;5.70;;;;;;;;;;3584835;40;20037;-59
2021/06/05 08:04:56;;;;;;;10.27;5.55;;;;;;;;;;3583896;40;20291;-60
2021/06/05 08:07:22;;;;;;;7.78;5.40;;;;;;;;;;3576371;40;20043;-59
2021/06/05 08:09:47;;;;;;;6.20;4.60;;;;;;;;;;3586078;40;20141;-61
2021/06/05 08:12:13;;;;;;;6.47;4.88;;;;;;;;;;3584292;40;20051;-61
2021/06/05 08:14:38;;;;;;;5.20;4.30;;;;;;;;;;3583721;40;20040;-61
2021/06/05 08:17:04;;;;;;;6.68;4.22;;;;;;;;;;3584841;40;20033;-61
2021/06/05 08:19:30;;;;;;;8.35;5.03;;;;;;;;;;3586361;40;20046;-60
2021/06/05 08:21:55;;;;;;;9.27;5.30;;;;;;;;;;3583726;40;20040;-60
2021/06/05 08:24:22;;;;;;;6.55;5.18;;;;;;;;;;3583743;40;20033;-60
2021/06/05 08:26:47;;;;;;;8.15;4.00;;;;;;;;;;3577466;40;20549;-60
2021/06/05 08:29:13;;;;;;;7.18;4.95;;;;;;;;;;3585407;40;20037;-60
2021/06/05 08:31:39;;;;;;;6.25;4.47;;;;;;;;;;3585350;40;20037;-60
2021/06/05 08:34:05;;;;;;;7.10;4.22;;;;;;;;;;3583739;40;20214;-60
2021/06/05 08:36:31;;;;;;;8.00;3.67;;;;;;;;;;3586754;40;20036;-60
2021/06/05 08:38:57;;;;;;;6.43;4.18;;;;;;;;;;3584897;40;20059;-60
2021/06/05 08:41:30;;;;;;;5.43;3.50;;;;;;;;;;3584629;40;20041;-60
2021/06/05 08:44:14;;;;;;;5.30;3.60;;;;;;;;;;3574859;40;20043;-60
2021/06/05 08:46:43;;;;;;;4.90;3.95;;;;;;;;;;3586535;40;20391;-60
2021/06/05 08:49:21;;;;;;;9.80;3.80;;;;;;;;;;3586257;40;20077;-60
2021/06/05 08:52:07;;;;;;;8.95;4.05;;;;;;;;;;3585907;40;20048;-59
2021/06/05 08:54:47;;;;;;;6.53;4.10;;;;;;;;;;3587060;40;20080;-59
2021/06/05 08:57:39;;;;;;;;;;;;;;;;;;3586609;40;20061;-59
2021/06/05 09:00:13;;;;;;;4.57;2.97;;;;;;;;;;3585755;40;19928;-59
2021/06/05 09:02:41;;;;;;;6.22;3.00;;;;;;;;;;3587833;40;20032;-60
2021/06/05 09:05:10;;;;;;;4.55;3.28;;;;;;;;;;3577706;40;20357;-59
2021/06/05 09:07:36;;;;;;;4.90;2.92;;;;;;;;;;3586691;40;20043;-59
2021/06/05 09:10:04;;;;;;;6.72;3.53;;;;;;;;;;3587048;40;20052;-59
2021/06/05 09:12:29;;;;;;;4.00;3.03;;;;;;;;;;3587745;40;20069;-59
2021/06/05 09:14:57;;;;;;;6.35;3.50;;;;;;;;;;3586015;40;20098;-59
2021/06/05 09:17:47;;;;;;;5.60;3.90;;;;;;;;;;3585580;40;20040;-59
2021/06/05 09:21:02;;;;;;;4.90;3.22;;;;;;;;;;3586715;40;20044;-59
2021/06/05 09:23:28;;;;;;;6.47;3.45;;;;;;;;;;3535433;40;20055;-59
2021/06/05 09:25:55;;;;;;;5.72;2.95;;;;;;;;;;3535207;40;20141;-59
2021/06/05 09:28:20;;;;;;;4.38;3.08;;;;;;;;;;3564520;40;20192;-60
2021/06/05 09:30:47;;;;;;;8.73;3.08;;;;;;;;;;3578984;39;20360;-60
2021/06/05 09:33:25;;;;;;;4.57;3.22;;;;;;;;;;3585582;40;20036;-59
2021/06/05 09:35:51;;;;;;;5.38;3.78;;;;;;;;;;3577368;40;20269;-59
2021/06/05 09:38:35;;;;;;;5.13;3.72;;;;;;;;;;3586942;40;20043;-59
2021/06/05 09:41:18;;;;;;;4.32;3.10;;;;;;;;;;3586595;40;20121;-59
2021/06/05 09:43:45;;;;;;;7.57;3.95;;;;;;;;;;3584763;40;20048;-59
2021/06/05 09:46:11;;;;;;;4.70;2.90;;;;;;;;;;3585405;40;20072;-59
2021/06/05 09:48:42;;;;;;;6.38;3.65;;;;;;;;;;3586578;40;20044;-59
2021/06/05 09:51:29;;;;;;;7.15;3.30;;;;;;;;;;3585452;40;20072;-59
2021/06/05 09:53:59;;;;;;;5.45;3.53;;;;;;;;;;3584294;40;20037;-59
2021/06/05 09:56:28;;;;;;;5.20;3.55;;;;;;;;;;3586201;40;20037;-60
2021/06/05 09:59:01;;;;;;;7.25;3.70;;;;;;;;;;3585889;40;20043;-60
2021/06/05 10:01:30;;;;;;;11.30;4.30;;;;;;;;;;3579093;40;20045;-60
2021/06/05 10:04:07;;;;;;;10.15;3.28;;;;;;;;;;3582735;40;20134;-62
2021/06/05 10:06:40;;;;;;;5.63;3.60;;;;;;;;;;3586954;40;20058;-60
2021/06/05 10:09:24;;;;;;;5.70;3.60;;;;;;;;;;3585912;40;20083;-60
2021/06/05 10:11:59;;;;;;;5.57;4.10;;;;;;;;;;3584973;40;20067;-59
2021/06/05 10:14:27;;;;;;;4.60;3.30;;;;;;;;;;3584989;40;20051;-60
2021/06/05 10:17:01;;;;;;;7.47;4.88;;;;;;;;;;3587089;40;20037;-59
2021/06/05 10:19:52;;;;;;;8.38;4.45;;;;;;;;;;3587481;40;20580;-59
2021/06/05 10:22:18;;;;;;;;;;;;;;;;;;3586414;40;20048;-59
2021/06/05 10:24:55;;;;;;;6.28;4.82;;;;;;;;;;3585400;40;20104;-58
2021/06/05 10:27:27;;;;;;;6.57;5.30;;;;;;;;;;3585626;40;20071;-58
2021/06/05 10:29:58;;;;;;;6.07;4.80;;;;;;;;;;3586943;40;20044;-59
2021/06/05 10:32:29;;;;;;;8.68;4.82;;;;;;;;;;3585445;40;20614;-59
2021/06/05 10:35:01;;;;;;;6.70;4.97;;;;;;;;;;3586403;40;20034;-58
2021/06/05 10:37:29;;;;;;;7.53;4.28;;;;;;;;;;3586322;40;20044;-58
2021/06/05 10:39:56;;;;;;;6.25;3.30;;;;;;;;;;3585975;40;20147;-59
2021/06/05 10:42:34;;;;;;;5.75;3.20;;;;;;;;;;3586177;40;20067;-59
2021/06/05 10:45:01;;;;;;;6.00;3.47;;;;;;;;;;3586449;40;20041;-59
2021/06/05 10:47:31;;;;;;;4.78;3.55;;;;;;;;;;3586607;40;20039;-58
2021/06/05 10:50:09;;;;;;;4.38;3.03;;;;;;;;;;3586342;40;20124;-59
2021/06/05 10:52:47;;;;;;;5.72;3.17;;;;;;;;;;3586685;40;20422;-59
2021/06/05 10:55:35;;;;;;;7.90;3.75;;;;;;;;;;3586023;40;20078;-59
2021/06/05 10:58:12;;;;;;;4.63;3.28;;;;;;;;;;3585931;40;20049;-59
2021/06/05 11:00:41;;;;;;;6.68;3.00;;;;;;;;;;3586305;40;20690;-59
2021/06/05 11:03:07;;;;;;;5.53;2.63;;;;;;;;;;3584538;40;20431;-58
2021/06/05 11:05:34;;;;;;;4.22;3.28;;;;;;;;;;3585495;40;20041;-58
2021/06/05 11:08:25;;;;;;;4.38;2.85;;;;;;;;;;3585803;40;20055;-59
2021/06/05 11:11:12;;;;;;;4.30;3.28;;;;;;;;;;3562675;40;20114;-58
2021/06/05 11:13:41;;;;;;;5.38;3.70;;;;;;;;;;3576208;40;20138;-59
2021/06/05 11:16:15;;;;;;;7.80;3.17;;;;;;;;;;3585031;40;20447;-59
2021/06/05 11:18:46;;;;;;;6.85;3.60;;;;;;;;;;3586346;40;20039;-59
2021/06/05 11:21:24;;;;;;;5.55;3.22;;;;;;;;;;3584578;40;20033;-60
2021/06/05 11:23:56;;;;;;;6.45;3.22;;;;;;;;;;3583559;40;20040;-61
2021/06/05 11:26:37;;;;;;;4.40;3.40;;;;;;;;;;3586150;40;20032;-60
2021/06/05 11:29:21;;;;;;;3.67;2.45;;;;;;;;;;3585264;40;20055;-60
2021/06/05 11:31:49;;;;;;;13.15;3.65;;;;;;;;;;3583033;40;20510;-60
2021/06/05 11:34:34;;;;;;;5.90;4.07;;;;;;;;;;3584641;40;20044;-60
2021/06/05 11:37:13;;;;;;;5.25;3.75;;;;;;;;;;3585517;39;20051;-60
2021/06/05 11:39:59;;;;;;;4.85;2.95;;;;;;;;;;3583906;40;20481;-62
2021/06/05 11:42:24;;;;;;;3.85;2.95;;;;;;;;;;3582726;40;20055;-61
2021/06/05 11:44:55;;;;;;;6.75;3.35;;;;;;;;;;3584843;40;20040;-60
2021/06/05 11:47:21;;;;;;;5.72;3.55;;;;;;;;;;3576713;40;20087;-59
2021/06/05 11:49:58;;;;;;;5.80;3.55;;;;;;;;;;3586862;40;20044;-61
2021/06/05 11:52:31;;;;;;;4.57;3.40;;;;;;;;;;3576694;40;20052;-60
2021/06/05 11:55:18;;;;;;;3.33;2.45;;;;;;;;;;3586004;40;20040;-61
2021/06/05 11:57:53;;;;;;;7.45;4.85;;;;;;;;;;3584057;40;20060;-60
2021/06/05 12:00:31;;;;;;;5.38;4.00;;;;;;;;;;3586209;40;20133;-60
2021/06/05 12:03:32;;;;;;;9.75;3.47;;;;;;;;;;3584245;40;20091;-62
2021/06/05 12:06:17;;;;;;;3.92;2.70;;;;;;;;;;3586179;40;20033;-61
2021/06/05 12:08:44;;;;;;;6.00;2.65;;;;;;;;;;3586693;40;20596;-60
2021/06/05 12:11:28;;;;;;;4.68;2.47;;;;;;;;;;3587388;40;20384;-60
2021/06/05 12:14:18;;;;;;;6.53;2.80;;;;;;;;;;3584647;40;20067;-60
2021/06/05 12:16:51;;;;;;;7.28;5.22;;;;;;;;;;3585795;40;20332;-60
2021/06/05 12:19:16;;;;;;;5.38;3.67;;;;;;;;;;3585578;40;20044;-61
2021/06/05 12:21:44;;;;;;;5.25;3.53;;;;;;;;;;3584289;40;20036;-59
2021/06/05 12:24:22;;;;;;;4.40;3.45;;;;;;;;;;3585711;40;20036;-60
2021/06/05 12:26:50;;;;;;;7.68;3.83;;;;;;;;;;3576322;40;20081;-60
2021/06/05 12:29:24;;;;;;;4.88;3.55;;;;;;;;;;3585753;40;20040;-61
2021/06/05 12:31:52;;;;;;;7.22;4.75;;;;;;;;;;3584261;40;20040;-61
2021/06/05 12:34:34;;;;;;;5.15;4.40;;;;;;;;;;3583775;40;20066;-60
2021/06/05 12:37:03;;;;;;;4.88;3.15;;;;;;;;;;3577388;40;20032;-61
2021/06/05 12:39:51;;;;;;;6.78;4.07;;;;;;;;;;3585548;40;20071;-61
2021/06/05 12:42:22;;;;;;;4.18;3.47;;;;;;;;;;3584407;40;20043;-62
2021/06/05 12:44:49;;;;;;;;;;;;;;;;;;3584700;40;20045;-61
2021/06/05 12:47:20;;;;;;;10.07;3.60;;;;;;;;;;3585003;40;19946;-61
2021/06/05 12:49:46;;;;;;;4.95;3.97;;;;;;;;;;3583932;40;20470;-61
2021/06/05 12:52:17;;;;;;;5.85;4.20;;;;;;;;;;3581793;40;20029;-60
2021/06/05 12:54:46;;;;;;;5.22;4.00;;;;;;;;;;3583611;39;20048;-60
2021/06/05 12:57:49;;;;;;;9.13;3.92;;;;;;;;;;3586576;40;20024;-61
2021/06/05 13:00:17;;;;;;;6.95;3.28;;;;;;;;;;3576721;40;20033;-60
2021/06/05 13:02:43;;;;;;;5.43;3.85;;;;;;;;;;3582611;40;20032;-61
2021/06/05 13:05:23;;;;;;;6.00;4.03;;;;;;;;;;3584156;40;20040;-60
2021/06/05 13:07:50;;;;;;;4.25;3.42;;;;;;;;;;3584307;40;20040;-59
2021/06/05 13:10:38;;;;;;;10.93;3.85;;;;;;;;;;3585305;40;20374;-60
2021/06/05 13:13:11;;;;;;;5.25;3.90;;;;;;;;;;3583103;40;20039;-60
2021/06/05 13:15:44;;;;;;;5.68;4.35;;;;;;;;;;3583734;40;20048;-59
2021/06/05 13:18:22;;;;;;;7.90;3.70;;;;;;;;;;3584550;40;20033;-59
2021/06/05 13:20:53;;;;;;;6.63;3.60;;;;;;;;;;3584065;40;20036;-59
2021/06/05 13:23:40;;;;;;;5.50;3.50;;;;;;;;;;3583933;40;20273;-60
2021/06/05 13:26:28;;;;;;;5.72;3.92;;;;;;;;;;3584986;40;20067;-59
2021/06/05 13:28:56;;;;;;;5.10;3.50;;;;;;;;;;3585232;40;20040;-61
2021/06/05 13:31:43;;;;;;;10.45;4.05;;;;;;;;;;3585509;40;20048;-60
2021/06/05 13:34:19;;;;;;;4.68;3.85;;;;;;;;;;3570884;40;20156;-61
2021/06/05 13:36:46;;;;;;;10.30;4.22;;;;;;;;;;3584571;40;20133;-60
2021/06/05 13:39:18;;;;;;;5.55;3.78;;;;;;;;;;3585150;40;20040;-60
2021/06/05 13:41:45;;;;;;;6.00;3.67;;;;;;;;;;3587085;40;20047;-61
2021/06/05 13:44:12;;;;;;;4.10;3.08;;;;;;;;;;3586723;40;20070;-61
2021/06/05 13:46:38;;;;;;;4.82;4.03;;;;;;;;;;3586824;40;20060;-60
2021/06/05 13:49:06;;;;;;;7.93;3.55;;;;;;;;;;3576960;40;20429;-60
2021/06/05 13:51:32;;;;;;;6.47;4.30;;;;;;;;;;3586226;40;20041;-60
2021/06/05 13:53:58;;;;;;;8.50;4.65;;;;;;;;;;3585335;40;20041;-60
2021/06/05 13:56:25;;;;;;;6.40;4.60;;;;;;;;;;3586463;40;20125;-61
2021/06/05 13:58:51;;;;;;;6.20;4.07;;;;;;;;;;3586839;40;20045;-60
2021/06/05 14:01:27;;;;;;;7.03;4.10;;;;;;;;;;3587030;40;20064;-60
2021/06/05 14:03:52;;;;;;;5.45;4.53;;;;;;;;;;3583510;40;20450;-61
2021/06/05 14:06:18;;;;;;;6.93;4.82;;;;;;;;;;3585537;39;20040;-61
2021/06/05 14:08:44;;;;;;;4.85;3.55;;;;;;;;;;3587602;40;20032;-61
2021/06/05 14:11:16;;;;;;;4.32;3.10;;;;;;;;;;3586131;40;20028;-62
2021/06/05 14:13:42;;;;;;;5.60;2.78;;;;;;;;;;3584150;40;20283;-61
2021/06/05 14:16:07;;;;;;;4.38;2.58;;;;;;;;;;3586137;40;20260;-61
2021/06/05 14:18:33;;;;;;;5.47;2.95;;;;;;;;;;3587463;40;20121;-61
2021/06/05 14:21:00;;;;;;;3.80;2.55;;;;;;;;;;3586340;40;20041;-61
2021/06/05 14:23:27;;;;;;;3.50;2.40;;;;;;;;;;3584094;40;20041;-62
2021/06/05 14:25:53;;;;;;;5.25;3.03;;;;;;;;;;3586181;40;20032;-62
2021/06/05 14:28:21;;;;;;;5.15;3.25;;;;;;;;;;3585734;40;20060;-61
2021/06/05 14:30:49;;;;;;;3.38;2.75;;;;;;;;;;3577713;40;20040;-61
2021/06/05 14:33:15;;;;;;;4.05;3.10;;;;;;;;;;3584734;39;20371;-61
2021/06/05 14:35:42;;;;;;;4.90;3.45;;;;;;;;;;3585297;40;20040;-62
2021/06/05 14:38:10;;;;;;;4.18;3.15;;;;;;;;;;3586066;40;20052;-63
2021/06/05 14:40:36;;;;;;;5.82;3.50;;;;;;;;;;3576353;40;20129;-62
2021/06/05 14:43:02;;;;;;;4.95;4.15;;;;;;;;;;3583582;40;20045;-61
2021/06/05 14:45:39;;;;;;;6.43;4.13;;;;;;;;;;3588264;40;20074;-62
2021/06/05 14:48:06;;;;;;;5.68;3.60;;;;;;;;;;3585992;40;20141;-61
2021/06/05 14:50:32;;;;;;;4.65;3.75;;;;;;;;;;3585804;40;20029;-61
2021/06/05 14:52:59;;;;;;;7.03;3.97;;;;;;;;;;3570930;40;20561;-61
2021/06/05 14:55:27;;;;;;;5.25;3.53;;;;;;;;;;3586529;40;20113;-61
2021/06/05 14:57:53;;;;;;;8.15;3.38;;;;;;;;;;3587052;40;20103;-62